createdAt,value
2023-01-04T00:01:43.658Z,2.37
2023-01-04T00:04:28.960Z,2.87
2023-01-04T00:07:14.371Z,2.53
2023-01-04T00:09:59.944Z,2.70
2023-01-04T00:12:45.326Z,2.40
2023-01-04T00:15:30.635Z,2.60
2023-01-04T00:18:15.841Z,2.57
2023-01-04T00:21:13.667Z,2.60
2023-01-04T00:24:00.931Z,2.33
2023-01-04T00:26:46.235Z,2.50
2023-01-04T00:29:31.569Z,2.60
2023-01-04T00:32:16.876Z,2.60
2023-01-04T00:35:02.117Z,2.60
2023-01-04T00:37:51.917Z,2.23
2023-01-04T00:40:37.734Z,2.50
2023-01-04T00:43:23.185Z,2.43
2023-01-04T00:46:11.622Z,2.00
2023-01-04T00:49:00.396Z,2.37
2023-01-04T00:51:46.144Z,2.50
2023-01-04T00:54:31.488Z,2.50
2023-01-04T00:57:16.831Z,2.40
2023-01-04T01:00:02.028Z,2.47
2023-01-04T01:02:47.691Z,2.13
2023-01-04T01:05:35.436Z,2.20
2023-01-04T01:08:26.964Z,2.20
2023-01-04T01:11:12.771Z,2.10
2023-01-04T01:13:59.039Z,2.23
2023-01-04T01:16:55.202Z,2.10
2023-01-04T01:19:41.630Z,1.97
2023-01-04T01:22:26.917Z,2.10
2023-01-04T01:25:12.058Z,1.83
2023-01-04T01:27:57.046Z,2.17
2023-01-04T01:30:43.765Z,2.10
2023-01-04T01:33:29.321Z,2.10
2023-01-04T01:36:15.945Z,2.20
2023-01-04T01:39:01.534Z,1.90
2023-01-04T01:41:47.184Z,1.70
2023-01-04T01:44:45.109Z,1.83
2023-01-04T01:48:01.049Z,1.63
2023-01-04T01:51:01.615Z,1.73
2023-01-04T01:53:53.096Z,1.60
2023-01-04T01:56:42.506Z,1.77
2023-01-04T01:59:30.135Z,1.77
2023-01-04T02:02:15.724Z,2.00
2023-01-04T02:05:03.162Z,1.90
2023-01-04T02:07:49.817Z,2.00
2023-01-04T02:10:35.469Z,1.70
2023-01-04T02:13:46.069Z,1.60
2023-01-04T02:16:56.745Z,1.80
2023-01-04T02:20:17.681Z,1.73
2023-01-04T02:23:46.084Z,1.77
2023-01-04T02:26:49.900Z,1.73
2023-01-04T02:29:47.786Z,1.50
2023-01-04T02:33:08.471Z,1.80
2023-01-04T02:36:16.856Z,1.70
2023-01-04T02:39:20.414Z,1.57
2023-01-04T02:45:53.255Z,1.43
2023-01-04T02:48:59.160Z,1.48
2023-01-04T02:51:44.531Z,1.43
2023-01-04T02:54:32.600Z,1.67
2023-01-04T02:57:37.530Z,1.80
2023-01-04T03:01:26.693Z,1.43
2023-01-04T03:04:37.164Z,1.57
2023-01-04T03:07:36.538Z,1.37
2023-01-04T03:10:35.933Z,1.50
2023-01-04T03:13:40.293Z,1.67
2023-01-04T03:16:26.815Z,1.20
2023-01-04T03:19:14.884Z,1.30
2023-01-04T03:22:00.468Z,1.47
2023-01-04T03:25:05.057Z,1.30
2023-01-04T03:28:12.221Z,1.20
2023-01-04T03:31:23.352Z,1.37
2023-01-04T03:34:27.386Z,1.30
2023-01-04T03:37:22.253Z,1.37
2023-01-04T03:40:48.745Z,1.60
2023-01-04T03:44:02.117Z,1.43
2023-01-04T03:47:12.040Z,1.50
2023-01-04T03:50:29.256Z,1.70
2023-01-04T03:53:15.464Z,1.60
2023-01-04T03:56:02.422Z,1.60
2023-01-04T03:58:48.167Z,1.53
2023-01-04T04:01:35.059Z,1.80
2023-01-04T04:04:39.013Z,1.80
2023-01-04T04:10:28.093Z,1.95
2023-01-04T04:13:13.642Z,1.70
2023-01-04T04:15:59.092Z,1.90
2023-01-04T04:18:44.513Z,1.87
2023-01-04T04:21:30.218Z,1.80
2023-01-04T04:24:25.331Z,2.00
2023-01-04T04:27:11.108Z,1.90
2023-01-04T04:29:56.299Z,1.67
2023-01-04T04:32:42.764Z,1.77
2023-01-04T04:35:28.070Z,1.50
2023-01-04T04:38:13.368Z,1.57
2023-01-04T04:41:17.108Z,1.67
2023-01-04T04:44:02.475Z,1.60
2023-01-04T04:46:48.610Z,1.60
2023-01-04T04:49:34.084Z,1.30
2023-01-04T04:52:19.145Z,1.60
2023-01-04T04:55:05.738Z,1.33
2023-01-04T04:57:51.185Z,1.47
2023-01-04T05:00:36.539Z,1.60
2023-01-04T05:03:22.009Z,1.50
2023-01-04T05:06:07.273Z,1.33
2023-01-04T05:08:52.636Z,1.50
2023-01-04T05:11:56.555Z,1.50
2023-01-04T05:14:42.075Z,1.90
2023-01-04T05:17:27.739Z,1.67
2023-01-04T05:20:13.151Z,1.40
2023-01-04T05:22:58.971Z,1.40
2023-01-04T05:25:44.563Z,1.37
2023-01-04T05:28:29.792Z,1.47
2023-01-04T05:31:15.057Z,1.43
2023-01-04T05:34:00.590Z,1.43
2023-01-04T05:36:46.026Z,1.30
2023-01-04T05:39:32.363Z,1.60
2023-01-04T05:42:28.014Z,1.20
2023-01-04T05:45:15.224Z,1.20
2023-01-04T05:48:01.145Z,1.40
2023-01-04T05:50:47.669Z,1.50
2023-01-04T05:53:33.189Z,2.50
2023-01-04T05:56:18.823Z,2.37
2023-01-04T05:59:04.157Z,2.57
2023-01-04T06:01:49.663Z,2.70
2023-01-04T06:04:34.957Z,2.70
2023-01-04T06:07:20.683Z,3.20
2023-01-04T06:10:07.816Z,3.37
2023-01-04T06:12:53.131Z,3.00
2023-01-04T06:15:43.082Z,3.30
2023-01-04T06:18:28.997Z,3.00
2023-01-04T06:21:14.445Z,2.90
2023-01-04T06:23:59.678Z,2.93
2023-01-04T06:26:45.000Z,3.20
2023-01-04T06:29:30.180Z,2.53
2023-01-04T06:32:15.341Z,2.77
2023-01-04T06:35:00.779Z,2.90
2023-01-04T06:37:46.026Z,2.30
2023-01-04T06:40:31.373Z,2.57
2023-01-04T06:43:16.876Z,2.23
2023-01-04T06:46:03.687Z,2.43
2023-01-04T06:48:49.376Z,2.50
2023-01-04T06:51:34.660Z,2.63
2023-01-04T06:54:20.012Z,2.23
2023-01-04T06:57:05.221Z,2.27
2023-01-04T06:59:50.598Z,2.40
2023-01-04T07:02:36.125Z,2.30
2023-01-04T07:05:21.593Z,2.23
2023-01-04T07:08:08.366Z,2.13
2023-01-04T07:10:53.668Z,2.27
2023-01-04T07:13:38.959Z,2.27
2023-01-04T07:16:26.984Z,2.27
2023-01-04T07:19:12.116Z,2.20
2023-01-04T07:21:58.882Z,2.30
2023-01-04T07:24:44.627Z,2.47
2023-01-04T07:27:30.200Z,2.83
2023-01-04T07:30:15.365Z,2.73
2023-01-04T07:33:00.735Z,2.40
2023-01-04T07:35:46.045Z,2.60
2023-01-04T07:38:31.427Z,2.63
2023-01-04T07:41:16.871Z,3.57
2023-01-04T07:44:02.173Z,3.60
2023-01-04T07:46:47.889Z,2.97
2023-01-04T07:49:33.394Z,3.30
2023-01-04T07:52:18.734Z,2.90
2023-01-04T07:55:04.275Z,3.00
2023-01-04T07:57:49.455Z,3.23
2023-01-04T08:00:34.745Z,2.93
2023-01-04T08:03:20.146Z,3.50
2023-01-04T08:06:06.830Z,3.03
2023-01-04T08:08:51.991Z,2.97
2023-01-04T08:11:37.512Z,3.23
2023-01-04T08:14:23.436Z,3.33
2023-01-04T08:17:10.115Z,3.43
2023-01-04T08:19:55.342Z,3.37
2023-01-04T08:22:40.933Z,3.00
2023-01-04T08:25:26.336Z,2.93
2023-01-04T08:28:11.625Z,3.00
2023-01-04T08:30:57.370Z,2.67
2023-01-04T08:33:43.677Z,2.93
2023-01-04T08:36:31.715Z,3.20
2023-01-04T08:39:17.748Z,2.60
2023-01-04T08:42:17.949Z,3.10
2023-01-04T08:45:06.972Z,2.90
2023-01-04T08:47:52.269Z,3.00
2023-01-04T08:50:37.618Z,3.50
2023-01-04T08:53:22.936Z,2.77
2023-01-04T08:56:08.798Z,3.10
2023-01-04T08:58:53.990Z,2.90
2023-01-04T09:01:40.005Z,2.80
2023-01-04T09:04:25.407Z,2.90
2023-01-04T09:07:10.706Z,3.00
2023-01-04T09:09:57.097Z,2.93
2023-01-04T09:12:43.067Z,2.70
2023-01-04T09:15:28.638Z,2.90
2023-01-04T09:18:31.719Z,2.63
2023-01-04T09:21:20.767Z,2.50
2023-01-04T09:24:06.200Z,2.37
2023-01-04T09:26:51.512Z,2.40
2023-01-04T09:29:36.845Z,2.50
2023-01-04T09:32:22.276Z,2.43
2023-01-04T09:35:08.289Z,2.33
2023-01-04T09:37:55.299Z,2.40
2023-01-04T09:41:12.902Z,2.80
2023-01-04T09:44:07.177Z,2.40
2023-01-04T09:47:01.184Z,2.30
2023-01-04T09:49:52.764Z,2.60
2023-01-04T09:53:16.648Z,2.40
2023-01-04T09:56:16.770Z,2.20
2023-01-04T09:59:07.241Z,2.27
2023-01-04T10:01:59.609Z,2.40
2023-01-04T10:04:47.649Z,2.37
2023-01-04T10:07:34.549Z,2.27
2023-01-04T10:10:51.863Z,2.20
2023-01-04T10:14:00.779Z,2.10
2023-01-04T10:17:16.374Z,2.57
2023-01-04T10:23:44.066Z,2.30
2023-01-04T10:26:36.794Z,1.87
2023-01-04T10:29:55.638Z,2.10
2023-01-04T10:32:42.591Z,2.20
2023-01-04T10:35:29.462Z,2.07
2023-01-04T10:38:23.851Z,2.20
2023-01-04T10:41:21.660Z,2.37
2023-01-04T10:44:20.731Z,2.20
2023-01-04T10:47:18.285Z,2.00
2023-01-04T10:50:14.707Z,1.80
2023-01-04T10:53:12.369Z,2.03
2023-01-04T10:56:23.846Z,2.03
2023-01-04T10:59:27.495Z,1.80
2023-01-04T11:02:43.888Z,2.10
2023-01-04T11:05:44.631Z,1.80
2023-01-04T11:08:39.922Z,2.07
2023-01-04T11:11:32.388Z,1.80
2023-01-04T11:14:18.095Z,1.90
2023-01-04T11:17:05.878Z,2.10
2023-01-04T11:19:51.300Z,2.00
2023-01-04T11:22:42.728Z,1.50
2023-01-04T11:25:36.206Z,1.80
2023-01-04T11:28:24.008Z,1.73
2023-01-04T11:31:09.600Z,1.80
2023-01-04T11:34:03.820Z,1.60
2023-01-04T11:36:49.033Z,1.57
2023-01-04T11:39:34.177Z,1.73
2023-01-04T11:42:21.800Z,1.87
2023-01-04T11:45:17.585Z,1.70
2023-01-04T11:48:12.361Z,1.80
2023-01-04T11:51:01.132Z,1.60
2023-01-04T11:53:59.764Z,1.73
2023-01-04T11:57:00.106Z,1.60
2023-01-04T11:59:45.790Z,1.50
2023-01-04T12:05:37.525Z,1.50
2023-01-04T12:08:35.343Z,1.47
2023-01-04T12:11:31.327Z,1.60
2023-01-04T12:14:29.516Z,1.90
2023-01-04T12:17:59.295Z,1.60
2023-01-04T12:20:45.296Z,1.67
2023-01-04T12:23:33.519Z,1.60
2023-01-04T12:26:19.752Z,1.87
2023-01-04T12:29:23.395Z,1.53
2023-01-04T12:32:11.783Z,1.60
2023-01-04T12:34:57.567Z,1.60
2023-01-04T12:37:46.152Z,1.10
2023-01-04T12:40:47.036Z,1.43
2023-01-04T12:43:41.707Z,1.60
2023-01-04T12:46:50.290Z,1.40
2023-01-04T12:49:41.806Z,1.70
2023-01-04T12:52:37.804Z,1.60
2023-01-04T12:55:31.052Z,1.63
2023-01-04T12:58:51.146Z,1.70
2023-01-04T13:01:34.945Z,1.70
2023-01-04T13:04:30.341Z,1.60
2023-01-04T13:07:31.259Z,1.30
2023-01-04T13:10:21.581Z,1.30
2023-01-04T13:13:12.903Z,1.33
2023-01-04T13:16:20.306Z,1.60
2023-01-04T13:19:22.638Z,1.30
2023-01-04T13:22:42.637Z,1.20
2023-01-04T13:25:28.599Z,1.23
2023-01-04T13:28:18.651Z,1.43
2023-01-04T13:31:03.965Z,1.40
2023-01-04T13:33:50.277Z,1.57
2023-01-04T13:36:35.595Z,1.20
2023-01-04T13:39:20.954Z,1.17
2023-01-04T13:42:14.405Z,1.23
2023-01-04T13:45:19.962Z,1.37
2023-01-04T13:48:12.652Z,1.90
2023-01-04T13:51:04.258Z,1.60
2023-01-04T13:53:54.897Z,1.13
2023-01-04T13:56:41.687Z,1.50
2023-01-04T13:59:27.396Z,1.50
2023-01-04T14:02:20.719Z,1.50
2023-01-04T14:05:17.734Z,1.40
2023-01-04T14:08:09.867Z,1.37
2023-01-04T14:10:55.227Z,1.40
2023-01-04T14:13:47.240Z,1.20
2023-01-04T14:16:32.465Z,1.50
2023-01-04T14:19:39.434Z,1.50
2023-01-04T14:22:34.977Z,1.40
2023-01-04T14:25:40.729Z,1.60
2023-01-04T14:28:32.309Z,1.50
2023-01-04T14:31:20.428Z,1.63
2023-01-04T14:34:07.568Z,2.17
2023-01-04T14:37:03.805Z,2.70
2023-01-04T14:39:49.439Z,3.70
2023-01-04T14:42:34.657Z,3.20
2023-01-04T14:45:20.119Z,3.87
2023-01-04T14:48:05.874Z,3.93
2023-01-04T14:50:51.461Z,3.40
2023-01-04T14:53:37.059Z,3.53
2023-01-04T14:56:22.288Z,3.63
2023-01-04T14:59:08.448Z,3.57
2023-01-04T15:01:55.914Z,3.73
2023-01-04T15:04:42.004Z,3.70
2023-01-04T15:07:40.389Z,3.87
2023-01-04T15:10:28.153Z,3.27
2023-01-04T15:13:13.700Z,3.80
2023-01-04T15:15:58.983Z,3.77
2023-01-04T15:18:45.821Z,3.30
2023-01-04T15:21:34.108Z,3.00
2023-01-04T15:24:26.965Z,2.92
2023-01-04T15:27:13.645Z,2.50
2023-01-04T15:29:59.241Z,2.47
2023-01-04T15:32:44.547Z,2.67
2023-01-04T15:35:30.134Z,2.80
2023-01-04T15:38:18.515Z,2.60
2023-01-04T15:41:06.642Z,2.17
2023-01-04T15:43:52.139Z,2.87
2023-01-04T15:46:37.575Z,2.80
2023-01-04T15:49:23.360Z,2.80
2023-01-04T15:52:08.612Z,2.47
2023-01-04T15:55:07.068Z,2.67
2023-01-04T15:57:52.482Z,2.80
2023-01-04T16:00:39.206Z,2.50
2023-01-04T16:03:24.474Z,2.47
2023-01-04T16:06:15.503Z,2.33
2023-01-04T16:09:02.001Z,2.43
2023-01-04T16:12:06.082Z,2.33
2023-01-04T16:14:51.757Z,2.13
2023-01-04T16:17:37.763Z,2.67
2023-01-04T16:20:23.950Z,30.93
2023-01-04T16:23:09.523Z,36.73
2023-01-04T16:26:25.054Z,46.20
2023-01-04T16:29:13.049Z,56.63
2023-01-04T16:31:59.074Z,57.63
2023-01-04T16:34:44.769Z,53.27
2023-01-04T16:37:30.950Z,53.43
2023-01-04T16:40:16.518Z,53.83
2023-01-04T16:43:02.889Z,46.23
2023-01-04T16:45:48.878Z,47.43
2023-01-04T16:48:34.609Z,43.50
2023-01-04T16:51:21.310Z,39.57
2023-01-04T16:54:09.325Z,40.37
2023-01-04T16:56:58.537Z,34.77
2023-01-04T16:59:44.219Z,38.03
2023-01-04T17:02:29.813Z,36.87
2023-01-04T17:05:15.573Z,36.70
2023-01-04T17:08:00.915Z,36.43
2023-01-04T17:10:46.256Z,31.87
2023-01-04T17:13:34.821Z,32.37
2023-01-04T17:16:23.645Z,32.90
2023-01-04T17:19:09.701Z,34.90
2023-01-04T17:21:54.997Z,32.10
2023-01-04T17:24:40.576Z,33.13
2023-01-04T17:27:26.451Z,31.13
2023-01-04T17:30:12.394Z,30.07
2023-01-04T17:32:58.354Z,30.40
2023-01-04T17:35:43.778Z,30.93
2023-01-04T17:38:29.003Z,28.80
2023-01-04T17:41:25.726Z,28.57
2023-01-04T17:44:11.672Z,28.77
2023-01-04T17:46:57.297Z,28.63
2023-01-04T17:49:42.635Z,27.93
2023-01-04T17:52:31.169Z,27.70
2023-01-04T17:55:18.078Z,25.37
2023-01-04T17:58:06.226Z,25.63
2023-01-04T18:00:55.683Z,24.53
2023-01-04T18:03:46.589Z,23.73
2023-01-04T18:06:36.484Z,23.13
2023-01-04T18:09:24.557Z,21.83
2023-01-04T18:12:10.024Z,20.87
2023-01-04T18:14:55.253Z,19.60
2023-01-04T18:17:41.297Z,17.37
2023-01-04T18:20:27.335Z,19.27
2023-01-04T18:23:24.269Z,17.27
2023-01-04T18:26:12.538Z,17.33
2023-01-04T18:28:58.515Z,15.83
2023-01-04T18:31:44.294Z,16.87
2023-01-04T18:34:30.169Z,17.80
2023-01-04T18:37:16.559Z,16.33
2023-01-04T18:40:03.171Z,16.10
2023-01-04T18:42:49.637Z,15.13
2023-01-04T18:45:35.597Z,16.03
2023-01-04T18:48:21.474Z,14.60
2023-01-04T18:51:12.477Z,14.07
2023-01-04T18:53:58.253Z,12.47
2023-01-04T18:56:43.987Z,12.47
2023-01-04T18:59:30.392Z,11.50
2023-01-04T19:02:18.571Z,11.00
2023-01-04T19:05:04.905Z,10.57
2023-01-04T19:07:50.615Z,11.27
2023-01-04T19:10:36.225Z,10.03
2023-01-04T19:13:21.601Z,9.60
2023-01-04T19:16:11.720Z,10.33
2023-01-04T19:18:59.106Z,10.30
2023-01-04T19:21:46.377Z,9.23
2023-01-04T19:24:32.411Z,9.30
2023-01-04T19:27:18.019Z,8.70
2023-01-04T19:30:04.163Z,8.37
2023-01-04T19:32:49.761Z,7.53
2023-01-04T19:35:40.661Z,7.97
2023-01-04T19:38:26.404Z,7.97
2023-01-04T19:41:21.114Z,7.60
2023-01-04T19:44:09.594Z,7.07
2023-01-04T19:46:55.577Z,6.50
2023-01-04T19:49:43.306Z,6.03
2023-01-04T19:52:30.813Z,6.03
2023-01-04T19:55:17.058Z,6.30
2023-01-04T19:58:03.224Z,5.77
2023-01-04T20:00:54.209Z,6.00
2023-01-04T20:03:44.692Z,5.27
2023-01-04T20:06:29.971Z,5.00
2023-01-04T20:09:15.647Z,4.93
2023-01-04T20:12:01.393Z,4.80
2023-01-04T20:14:47.532Z,4.40
2023-01-04T20:17:33.351Z,4.60
2023-01-04T20:20:19.380Z,4.67
2023-01-04T20:23:05.987Z,4.80
2023-01-04T20:25:54.010Z,4.10
2023-01-04T20:28:41.905Z,4.20
2023-01-04T20:31:27.849Z,4.40
2023-01-04T20:34:14.218Z,4.60
2023-01-04T20:36:59.823Z,4.90
2023-01-04T20:39:45.319Z,4.57
2023-01-04T20:42:49.070Z,4.80
2023-01-04T20:45:34.289Z,4.60
2023-01-04T20:48:19.670Z,4.30
2023-01-04T20:51:20.346Z,4.70
2023-01-04T20:54:05.981Z,4.20
2023-01-04T20:56:51.283Z,4.40
2023-01-04T20:59:36.815Z,4.30
2023-01-04T21:02:22.155Z,4.37
2023-01-04T21:05:08.212Z,4.47
2023-01-04T21:07:53.536Z,5.03
2023-01-04T21:10:43.427Z,4.87
2023-01-04T21:13:28.592Z,3.80
2023-01-04T21:16:15.073Z,4.27
2023-01-04T21:19:00.416Z,4.23
2023-01-04T21:21:45.606Z,4.30
2023-01-04T21:24:34.629Z,4.43
2023-01-04T21:27:19.825Z,4.47
2023-01-04T21:30:05.857Z,4.57
2023-01-04T21:32:51.321Z,3.70
2023-01-04T21:35:37.905Z,4.40
2023-01-04T21:38:23.746Z,4.10
2023-01-04T21:41:11.450Z,3.90
2023-01-04T21:43:57.917Z,4.47
2023-01-04T21:46:43.557Z,3.93
2023-01-04T21:49:28.757Z,4.40
2023-01-04T21:52:14.297Z,4.10
2023-01-04T21:54:59.562Z,3.67
2023-01-04T21:57:44.698Z,3.47
2023-01-04T22:00:30.220Z,3.87
2023-01-04T22:03:17.088Z,3.43
2023-01-04T22:06:03.310Z,3.60
2023-01-04T22:08:50.576Z,3.90
2023-01-04T22:11:36.920Z,3.67
2023-01-04T22:14:22.541Z,3.30
2023-01-04T22:17:08.089Z,3.50
2023-01-04T22:19:53.535Z,3.73
2023-01-04T22:22:38.838Z,3.67
2023-01-04T22:25:24.163Z,3.97
2023-01-04T22:28:13.664Z,3.37
2023-01-04T22:31:04.756Z,3.80
2023-01-04T22:33:50.567Z,4.07
2023-01-04T22:36:35.925Z,3.53
2023-01-04T22:39:21.605Z,3.33
2023-01-04T22:42:06.816Z,3.50
2023-01-04T22:44:52.195Z,3.43
2023-01-04T22:47:37.569Z,3.20
2023-01-04T22:50:23.198Z,3.70
2023-01-04T22:53:08.501Z,3.53
2023-01-04T22:56:19.012Z,3.77
2023-01-04T22:58:59.652Z,3.07
2023-01-04T23:01:45.164Z,2.90
2023-01-04T23:04:30.317Z,3.10
2023-01-04T23:07:15.728Z,3.73
2023-01-04T23:10:01.083Z,3.40
2023-01-04T23:12:46.323Z,3.50
2023-01-04T23:15:31.824Z,3.53
2023-01-04T23:18:17.194Z,3.50
2023-01-04T23:21:04.048Z,3.30
2023-01-04T23:23:50.489Z,2.97
2023-01-04T23:26:35.715Z,3.30
2023-01-04T23:29:21.155Z,3.37
2023-01-04T23:32:06.522Z,3.10
2023-01-04T23:34:51.857Z,2.80
2023-01-04T23:37:37.397Z,2.97
2023-01-04T23:40:22.523Z,2.87
2023-01-04T23:43:07.815Z,3.20
2023-01-04T23:45:52.958Z,2.60
2023-01-04T23:48:38.332Z,3.27
2023-01-04T23:51:23.553Z,2.80
2023-01-04T23:54:09.347Z,2.83
2023-01-04T23:56:55.265Z,2.87
2023-01-04T23:59:40.469Z,2.80
